メインページ
METAR-TAF:

METAR-TAF

空港 :

Greater Rochester International Airport

ロチェスター, ニューヨーク, アメリカ合衆国

緯度: 43-07-00N, 経度: 077-40-36W, 海抜: 170m

現時点の気象観測

当レポートは22分前の06:16(UTC)に作成
の風 3kt
気温 6°C
湿度 93%
気圧 1016 hPa
視程: 4.8km
高度400ftの千切れ雲あり
高度800ftの曇り
小雨, 靄

METAR: KROC 040616Z 35003KT 3SM -RA BR BKN004 OVC008 06/05 A3000 RMK AO2 P0000 T00560050

時間: 02:38 (06:38 UTC)

予報

当レポートは1時間0分前の05:38(UTC)に作成
予報は04日の 06時(UTC)から 05日の 06時(UTC)まで有効
の風 4kt
視程: 3.2km
高度200ftの曇り
小霧雨, 靄
04日の 1100時(UTC)から
北/北西の風 3kt
視程: 3.2km
高度300ftの曇り
04日の 1500時(UTC)から
の風 3kt
視程: 10km
高度700ftの曇り
04日の 1700時(UTC)から
の風 4kt
視程: 10km
高度1200ftの曇り
04日の 1900時(UTC)から
北/北東の風 4kt
視程: 10km
高度2500ftの千切れ雲あり

TAF: KROC 040538Z 0406/0506 35004KT 2SM -DZ BR OVC002 FM041100 33003KT 2SM BR OVC003 FM041500 35003KT P6SM OVC007 FM041700 36004KT P6SM OVC012 FM041900 02004KT P6SM BKN025

4,000以上の空港の気象観測と天気予報(METAR報とTAF報)

利用可能な観測所は地図上に黄色い丸と赤い丸で示す。

丸の上にカーソルを重ねると観測所名を参照できる。

次にクリックすると気象観測と天気予報を参照できる。

マップの切り替え:黒色「×」印の緑ボタンをクリックして拡大、「-」印の緑ボタンをクリックして縮小、緑色の三角印をクリックして隣りの地図に切り替え


METAR-TAF: